createdAt,value
2019-05-03T00:02:41.703Z,8.40
2019-05-03T00:07:35.288Z,8.30
2019-05-03T00:12:29.736Z,8.30
2019-05-03T00:17:24.282Z,8.20
2019-05-03T00:22:32.300Z,8.10
2019-05-03T00:27:26.348Z,8.00
2019-05-03T00:32:21.530Z,7.70
2019-05-03T00:37:23.668Z,7.50
2019-05-03T00:42:17.220Z,7.40
2019-05-03T00:47:12.574Z,7.20
2019-05-03T00:52:06.408Z,7.40
2019-05-03T00:57:03.826Z,7.60
2019-05-03T01:02:03.183Z,7.70
2019-05-03T01:06:59.025Z,7.80
2019-05-03T01:12:02.296Z,7.70
2019-05-03T01:17:02.615Z,7.60
2019-05-03T01:21:59.291Z,7.60
2019-05-03T01:26:53.700Z,7.70
2019-05-03T01:31:48.373Z,7.70
2019-05-03T01:36:51.891Z,7.70
2019-05-03T01:41:45.576Z,7.70
2019-05-03T01:46:42.083Z,7.60
2019-05-03T01:51:47.904Z,7.60
2019-05-03T01:56:56.837Z,7.60
2019-05-03T02:01:43.136Z,7.60
2019-05-03T02:06:37.624Z,7.50
2019-05-03T02:11:32.617Z,7.50
2019-05-03T02:16:26.571Z,7.30
2019-05-03T02:21:23.256Z,7.20
2019-05-03T02:26:16.736Z,7.00
2019-05-03T02:31:13.746Z,6.90
2019-05-03T02:36:13.303Z,6.80
2019-05-03T02:41:06.895Z,6.80
2019-05-03T02:46:05.888Z,6.80
2019-05-03T02:51:06.547Z,6.90
2019-05-03T02:56:13.707Z,7.00
2019-05-03T03:00:58.859Z,7.10
2019-05-03T03:06:02.493Z,7.20
2019-05-03T03:11:06.052Z,7.20
2019-05-03T03:16:01.893Z,7.10
2019-05-03T03:20:58.508Z,7.00
2019-05-03T03:25:55.853Z,6.90
2019-05-03T03:31:01.956Z,6.80
2019-05-03T03:36:07.268Z,6.80
2019-05-03T03:40:56.495Z,6.80
2019-05-03T03:45:52.098Z,6.70
2019-05-03T03:50:49.864Z,6.60
2019-05-03T03:55:47.413Z,6.40
2019-05-03T04:00:41.229Z,6.30
2019-05-03T04:05:35.885Z,6.30
2019-05-03T04:10:31.110Z,6.20
2019-05-03T04:15:28.304Z,6.20
2019-05-03T04:20:30.269Z,6.10
2019-05-03T04:25:26.210Z,6.00
2019-05-03T04:30:22.493Z,6.00
2019-05-03T04:35:21.826Z,6.00
2019-05-03T04:40:15.880Z,5.90
2019-05-03T04:45:09.932Z,6.00
2019-05-03T04:50:05.652Z,5.90
2019-05-03T04:55:01.571Z,5.80
2019-05-03T05:00:00.949Z,5.80
2019-05-03T05:04:55.565Z,5.90
2019-05-03T05:09:49.358Z,5.90
2019-05-03T05:14:45.742Z,6.20
2019-05-03T05:19:46.689Z,6.60
2019-05-03T05:24:40.270Z,7.00
2019-05-03T05:29:35.491Z,7.30
2019-05-03T05:34:30.108Z,7.60
2019-05-03T05:39:24.492Z,7.50
2019-05-03T05:44:18.135Z,7.60
2019-05-03T05:49:14.665Z,7.80
2019-05-03T05:54:10.272Z,8.10
2019-05-03T05:59:05.521Z,8.50
2019-05-03T06:03:59.088Z,8.70
2019-05-03T06:08:58.189Z,8.50
2019-05-03T06:13:54.617Z,8.30
2019-05-03T06:18:54.454Z,8.60
2019-05-03T06:23:49.783Z,8.60
2019-05-03T06:28:44.965Z,8.90
2019-05-03T06:33:39.756Z,9.10
2019-05-03T06:38:34.407Z,9.00
2019-05-03T06:43:28.067Z,9.10
2019-05-03T06:48:22.296Z,8.70
2019-05-03T06:53:17.572Z,8.90
2019-05-03T06:58:11.116Z,9.10
2019-05-03T07:03:18.610Z,9.30
2019-05-03T07:08:31.546Z,9.40
2019-05-03T07:13:25.542Z,9.10
2019-05-03T07:18:19.128Z,11.50
2019-05-03T07:23:12.672Z,9.00
2019-05-03T07:28:06.205Z,9.30
2019-05-03T07:33:01.614Z,9.20
2019-05-03T07:37:55.445Z,9.30
2019-05-03T07:42:49.170Z,9.10
2019-05-03T07:47:42.731Z,8.90
2019-05-03T07:52:36.305Z,9.40
2019-05-03T07:57:35.705Z,9.90
2019-05-03T08:02:29.457Z,10.30
2019-05-03T08:07:25.125Z,10.00
2019-05-03T08:12:19.113Z,10.00
2019-05-03T08:17:13.021Z,10.10
2019-05-03T08:22:06.757Z,10.10
2019-05-03T08:27:00.385Z,10.40
2019-05-03T08:32:01.647Z,11.00
2019-05-03T08:36:56.886Z,10.70
2019-05-03T08:41:57.843Z,10.10
2019-05-03T08:46:51.482Z,9.50
2019-05-03T08:51:45.025Z,9.00
2019-05-03T08:56:38.581Z,8.90
2019-05-03T09:01:32.229Z,8.80
2019-05-03T09:06:25.778Z,9.40
2019-05-03T09:11:30.801Z,10.60
2019-05-03T09:16:15.012Z,11.70
2019-05-03T09:21:08.841Z,12.00
2019-05-03T09:26:04.525Z,13.00
2019-05-03T09:30:57.675Z,13.40
2019-05-03T09:35:51.618Z,13.50
2019-05-03T09:40:45.522Z,13.70
2019-05-03T09:45:39.232Z,13.30
2019-05-03T09:50:32.815Z,12.80
2019-05-03T09:55:28.009Z,11.80
2019-05-03T10:00:21.643Z,11.30
2019-05-03T10:05:15.578Z,12.70
2019-05-03T10:10:09.663Z,13.50
2019-05-03T10:15:06.330Z,14.80
2019-05-03T10:19:59.407Z,13.00
2019-05-03T10:24:54.923Z,12.60
2019-05-03T10:29:49.137Z,13.90
2019-05-03T10:34:59.148Z,12.60
2019-05-03T10:39:52.717Z,12.00
2019-05-03T10:44:46.560Z,12.80
2019-05-03T10:49:40.141Z,12.80
2019-05-03T10:54:35.607Z,13.10
2019-05-03T10:59:28.936Z,14.10
2019-05-03T11:04:25.997Z,13.70
2019-05-03T11:09:19.566Z,13.00
2019-05-03T11:14:20.932Z,13.00
2019-05-03T11:19:15.086Z,13.10
2019-05-03T11:24:08.712Z,12.90
2019-05-03T11:29:02.273Z,13.90
2019-05-03T11:33:57.891Z,14.70
2019-05-03T11:38:51.582Z,14.10
2019-05-03T11:43:46.582Z,13.50
2019-05-03T11:48:40.168Z,14.40
2019-05-03T11:53:35.761Z,15.30
2019-05-03T11:58:29.413Z,16.00
2019-05-03T12:03:27.013Z,14.50
2019-05-03T12:08:20.656Z,14.70
2019-05-03T12:13:15.981Z,13.70
2019-05-03T12:18:16.699Z,12.60
2019-05-03T12:23:12.433Z,12.90
2019-05-03T12:28:12.477Z,13.60
2019-05-03T12:33:06.485Z,13.40
2019-05-03T12:38:00.059Z,12.90
2019-05-03T12:42:55.314Z,12.30
2019-05-03T12:47:48.801Z,12.30
2019-05-03T12:57:37.551Z,11.70
2019-05-03T13:02:47.751Z,11.80
2019-05-03T13:07:49.111Z,13.20
2019-05-03T13:12:52.434Z,12.90
2019-05-03T13:17:40.878Z,12.60
2019-05-03T13:22:35.495Z,12.40
2019-05-03T13:27:29.121Z,12.40
2019-05-03T13:32:22.709Z,12.30
2019-05-03T13:37:16.273Z,12.90
2019-05-03T13:42:14.485Z,13.00
2019-05-03T13:47:08.089Z,12.70
2019-05-03T15:20:18.920Z,10.50
2019-05-03T16:04:25.032Z,8.80
2019-05-03T16:09:19.113Z,9.00
2019-05-03T16:34:04.896Z,9.70
2019-05-03T16:53:41.407Z,9.40
2019-05-03T17:18:31.116Z,8.90
2019-05-03T18:08:46.622Z,6.90
2019-05-03T18:13:40.494Z,6.90
2019-05-03T18:18:35.260Z,7.00
2019-05-03T18:23:28.847Z,7.00
2019-05-03T18:28:22.385Z,7.10
2019-05-03T18:33:15.874Z,7.00
2019-05-03T18:38:10.284Z,7.20
2019-05-03T18:47:59.410Z,7.00
2019-05-03T19:32:15.052Z,6.90
2019-05-03T19:37:09.652Z,6.80
2019-05-03T19:42:03.187Z,6.70
2019-05-03T19:46:56.807Z,6.80
2019-05-03T19:51:50.434Z,6.80
2019-05-03T19:56:44.600Z,6.80
2019-05-03T20:01:40.918Z,6.70
2019-05-03T20:06:54.367Z,6.70
2019-05-03T22:19:31.440Z,6.30
2019-05-03T22:24:29.659Z,6.20
2019-05-03T22:29:25.476Z,6.10
2019-05-03T22:34:18.864Z,6.10
2019-05-03T22:39:12.421Z,6.10
2019-05-03T22:44:06.069Z,6.00
2019-05-03T22:48:59.956Z,6.00
2019-05-03T22:53:55.282Z,5.90
2019-05-03T23:13:32.776Z,5.90
2019-05-03T23:33:25.971Z,5.50
2019-05-03T23:53:01.269Z,6.10
